createdAt,value
2022-11-16T00:00:05.859Z,13.15
2022-11-16T00:02:33.162Z,11.80
2022-11-16T00:04:59.958Z,10.73
2022-11-16T00:07:26.853Z,11.75
2022-11-16T00:09:53.619Z,12.52
2022-11-16T00:12:20.318Z,13.23
2022-11-16T00:14:47.016Z,11.90
2022-11-16T00:17:13.666Z,12.45
2022-11-16T00:19:40.357Z,11.07
2022-11-16T00:22:07.042Z,12.00
2022-11-16T00:24:33.845Z,12.13
2022-11-16T00:27:00.466Z,12.98
2022-11-16T00:29:27.494Z,12.73
2022-11-16T00:31:55.405Z,12.63
2022-11-16T00:34:23.507Z,12.88
2022-11-16T00:36:50.406Z,11.30
2022-11-16T00:39:18.511Z,12.23
2022-11-16T00:41:45.543Z,12.25
2022-11-16T00:44:12.756Z,12.02
2022-11-16T00:46:40.413Z,11.88
2022-11-16T00:49:07.367Z,11.30
2022-11-16T00:51:35.342Z,11.75
2022-11-16T00:54:02.759Z,11.00
2022-11-16T00:56:29.452Z,11.70
2022-11-16T00:58:56.315Z,11.93
2022-11-16T01:01:23.388Z,10.98
2022-11-16T01:03:50.112Z,11.93
2022-11-16T01:06:17.114Z,11.55
2022-11-16T01:08:44.787Z,10.52
2022-11-16T01:11:32.919Z,11.13
2022-11-16T01:14:03.215Z,10.65
2022-11-16T01:16:30.633Z,11.75
2022-11-16T01:18:57.696Z,11.43
2022-11-16T01:21:24.733Z,10.85
2022-11-16T01:23:52.267Z,11.10
2022-11-16T01:26:19.043Z,11.68
2022-11-16T01:28:46.179Z,10.80
2022-11-16T01:31:12.969Z,10.98
2022-11-16T01:33:40.263Z,11.10
2022-11-16T01:36:14.530Z,11.30
2022-11-16T01:38:43.716Z,10.63
2022-11-16T01:41:17.577Z,11.50
2022-11-16T01:43:58.046Z,11.90
2022-11-16T01:46:26.592Z,12.80
2022-11-16T01:49:08.075Z,11.98
2022-11-16T01:51:35.153Z,11.77
2022-11-16T01:54:07.193Z,11.68
2022-11-16T01:56:36.829Z,10.98
2022-11-16T01:59:04.067Z,12.52
2022-11-16T02:01:30.864Z,12.25
2022-11-16T02:03:57.647Z,11.90
2022-11-16T02:06:27.304Z,12.50
2022-11-16T02:09:31.214Z,11.93
2022-11-16T02:12:14.669Z,11.38
2022-11-16T02:15:18.444Z,12.27
2022-11-16T02:18:08.126Z,12.20
2022-11-16T02:20:34.770Z,11.45
2022-11-16T02:23:20.307Z,13.32
2022-11-16T02:25:53.079Z,13.10
2022-11-16T02:28:37.981Z,12.18
2022-11-16T02:31:07.518Z,12.77
2022-11-16T02:33:39.017Z,13.43
2022-11-16T02:36:10.599Z,13.52
2022-11-16T02:38:40.366Z,13.10
2022-11-16T02:41:12.575Z,13.77
2022-11-16T02:44:01.359Z,12.38
2022-11-16T02:46:37.111Z,14.63
2022-11-16T02:49:08.955Z,13.52
2022-11-16T02:51:36.843Z,14.07
2022-11-16T02:54:12.770Z,13.52
2022-11-16T02:56:42.561Z,13.88
2022-11-16T02:59:13.095Z,11.85
2022-11-16T03:02:02.060Z,13.73
2022-11-16T03:04:36.236Z,14.77
2022-11-16T03:07:05.908Z,14.98
2022-11-16T03:09:36.224Z,13.40
2022-11-16T03:12:08.303Z,14.13
2022-11-16T03:14:37.860Z,13.60
2022-11-16T03:17:08.940Z,14.50
2022-11-16T03:19:51.804Z,14.73
2022-11-16T03:22:24.570Z,14.10
2022-11-16T03:24:51.310Z,15.93
2022-11-16T03:27:36.264Z,15.23
2022-11-16T03:30:22.336Z,16.70
2022-11-16T03:33:08.896Z,15.77
2022-11-16T03:35:43.442Z,16.20
2022-11-16T03:38:11.359Z,19.05
2022-11-16T03:40:39.362Z,17.60
2022-11-16T03:43:07.801Z,16.52
2022-11-16T03:45:36.556Z,16.58
2022-11-16T03:48:03.380Z,15.57
2022-11-16T03:50:30.091Z,15.30
2022-11-16T03:52:56.790Z,16.30
2022-11-16T03:55:23.646Z,14.52
2022-11-16T03:57:50.318Z,15.93
2022-11-16T04:00:17.090Z,14.68
2022-11-16T04:02:43.716Z,17.02
2022-11-16T04:05:28.909Z,16.70
2022-11-16T04:08:14.216Z,15.48
2022-11-16T04:10:59.548Z,16.75
2022-11-16T04:13:50.862Z,17.77
2022-11-16T04:16:36.489Z,16.98
2022-11-16T04:19:21.805Z,16.90
2022-11-16T04:22:11.834Z,17.02
2022-11-16T04:24:41.534Z,17.20
2022-11-16T04:27:29.889Z,17.27
2022-11-16T04:29:59.057Z,17.77
2022-11-16T04:32:44.198Z,18.40
2022-11-16T04:35:29.505Z,17.88
2022-11-16T04:37:57.550Z,19.02
2022-11-16T04:40:28.009Z,18.70
2022-11-16T04:42:56.879Z,17.98
2022-11-16T04:45:43.189Z,18.58
2022-11-16T04:48:11.033Z,16.95
2022-11-16T04:50:39.696Z,17.67
2022-11-16T04:53:06.957Z,17.08
2022-11-16T04:55:34.110Z,17.17
2022-11-16T04:58:00.885Z,16.83
2022-11-16T05:00:28.085Z,16.17
2022-11-16T05:03:00.836Z,15.63
2022-11-16T05:05:28.420Z,16.45
2022-11-16T05:07:55.103Z,15.90
2022-11-16T05:10:22.020Z,16.42
2022-11-16T05:12:48.927Z,15.80
2022-11-16T05:15:17.680Z,14.63
2022-11-16T05:17:44.352Z,13.52
2022-11-16T05:20:30.230Z,13.07
2022-11-16T05:22:58.434Z,13.95
2022-11-16T05:25:25.535Z,13.82
2022-11-16T05:27:52.216Z,11.90
2022-11-16T05:30:19.016Z,13.52
2022-11-16T05:32:46.214Z,11.85
2022-11-16T05:35:12.923Z,12.27
2022-11-16T05:37:40.123Z,11.95
2022-11-16T05:40:07.508Z,13.75
2022-11-16T05:42:34.322Z,13.27
2022-11-16T05:45:01.228Z,13.57
2022-11-16T05:47:27.980Z,12.07
2022-11-16T05:49:56.210Z,12.38
2022-11-16T05:52:25.507Z,13.18
2022-11-16T05:54:52.293Z,11.10
2022-11-16T05:57:20.061Z,12.25
2022-11-16T05:59:46.735Z,11.13
2022-11-16T06:02:13.541Z,12.57
2022-11-16T06:04:40.436Z,11.93
2022-11-16T06:07:07.395Z,11.88
2022-11-16T06:09:34.056Z,12.52
2022-11-16T06:12:00.745Z,10.77
2022-11-16T06:14:27.521Z,11.13
2022-11-16T06:16:54.311Z,10.52
2022-11-16T06:19:21.011Z,10.75
2022-11-16T06:21:47.661Z,11.43
2022-11-16T06:24:14.443Z,9.48
2022-11-16T06:26:41.326Z,11.13
2022-11-16T06:29:08.117Z,11.48
2022-11-16T06:31:34.932Z,10.65
2022-11-16T06:34:01.679Z,9.93
2022-11-16T06:36:28.509Z,10.50
2022-11-16T06:38:55.313Z,10.18
2022-11-16T06:41:22.202Z,9.13
2022-11-16T06:43:48.907Z,11.20
2022-11-16T06:46:15.858Z,9.95
2022-11-16T06:48:42.590Z,9.27
2022-11-16T06:51:09.418Z,10.68
2022-11-16T06:53:36.073Z,9.05
2022-11-16T06:56:06.722Z,9.93
2022-11-16T06:58:34.642Z,9.23
2022-11-16T07:01:12.118Z,9.25
2022-11-16T07:03:39.060Z,9.05
2022-11-16T07:06:08.226Z,9.13
2022-11-16T07:08:35.394Z,8.60
2022-11-16T07:11:05.194Z,9.55
2022-11-16T07:13:37.051Z,8.50
2022-11-16T07:16:08.978Z,8.27
2022-11-16T07:21:08.179Z,7.93
2022-11-16T07:23:35.966Z,8.48
2022-11-16T07:26:04.083Z,7.28
2022-11-16T07:28:31.929Z,8.45
2022-11-16T07:31:03.911Z,7.10
2022-11-16T07:33:30.838Z,8.18
2022-11-16T07:36:04.077Z,8.02
2022-11-16T07:38:32.413Z,8.32
2022-11-16T07:41:01.369Z,7.10
2022-11-16T07:43:31.711Z,7.15
2022-11-16T07:46:44.521Z,6.93
2022-11-16T07:48:53.534Z,6.95
2022-11-16T07:51:20.273Z,6.68
2022-11-16T07:53:46.951Z,6.30
2022-11-16T07:56:13.630Z,6.88
2022-11-16T07:58:40.547Z,6.10
2022-11-16T08:01:16.330Z,6.93
2022-11-16T08:03:44.540Z,5.75
2022-11-16T08:06:17.131Z,5.63
2022-11-16T08:08:44.314Z,5.75
2022-11-16T08:11:12.413Z,5.53
2022-11-16T08:13:40.806Z,5.85
2022-11-16T08:16:26.595Z,5.15
2022-11-16T08:18:53.332Z,5.57
2022-11-16T08:21:20.375Z,5.38
2022-11-16T08:23:47.358Z,5.85
2022-11-16T08:26:17.242Z,5.10
2022-11-16T08:28:46.700Z,4.63
2022-11-16T08:31:16.054Z,4.35
2022-11-16T08:33:42.995Z,5.45
2022-11-16T08:36:14.364Z,5.00
2022-11-16T08:38:41.320Z,5.20
2022-11-16T08:41:08.327Z,4.60
2022-11-16T08:43:35.784Z,3.80
2022-11-16T08:46:03.118Z,4.75
2022-11-16T08:48:29.882Z,4.05
2022-11-16T08:51:21.347Z,3.95
2022-11-16T08:53:49.361Z,4.25
2022-11-16T08:56:17.707Z,4.10
2022-11-16T08:58:46.964Z,4.22
2022-11-16T09:01:19.181Z,3.58
2022-11-16T09:03:46.659Z,3.72
2022-11-16T09:06:14.462Z,4.07
2022-11-16T09:08:43.105Z,4.10
2022-11-16T09:11:12.484Z,3.17
2022-11-16T09:13:39.581Z,3.92
2022-11-16T09:16:06.448Z,4.13
2022-11-16T09:18:34.704Z,3.78
2022-11-16T09:21:01.890Z,3.85
2022-11-16T09:23:28.728Z,4.25
2022-11-16T09:25:56.076Z,4.15
2022-11-16T09:28:22.859Z,3.53
2022-11-16T09:30:51.301Z,4.15
2022-11-16T09:33:18.281Z,3.80
2022-11-16T09:35:45.058Z,4.05
2022-11-16T09:38:14.879Z,4.57
2022-11-16T09:40:48.027Z,4.60
2022-11-16T09:43:46.148Z,3.22
2022-11-16T09:46:20.317Z,3.65
2022-11-16T09:48:49.337Z,3.22
2022-11-16T09:51:18.739Z,3.17
2022-11-16T09:53:49.289Z,3.65
2022-11-16T09:56:26.499Z,3.22
2022-11-16T09:59:00.304Z,3.25
2022-11-16T10:01:33.478Z,2.90
2022-11-16T10:04:20.839Z,2.58
2022-11-16T10:06:54.381Z,2.03
2022-11-16T10:09:21.869Z,2.70
2022-11-16T10:11:51.569Z,2.40
2022-11-16T10:14:38.303Z,3.25
2022-11-16T10:17:20.180Z,2.80
2022-11-16T10:20:05.391Z,3.28
2022-11-16T10:22:53.891Z,2.95
2022-11-16T10:25:22.048Z,3.20
2022-11-16T10:27:57.330Z,2.78
2022-11-16T10:30:24.303Z,2.63
2022-11-16T10:33:15.954Z,2.53
2022-11-16T10:35:54.255Z,2.50
2022-11-16T10:38:25.926Z,2.35
2022-11-16T10:40:57.316Z,2.28
2022-11-16T10:43:30.434Z,2.60
2022-11-16T10:46:17.054Z,2.65
2022-11-16T10:49:02.054Z,2.78
2022-11-16T10:51:28.809Z,2.28
2022-11-16T10:53:56.987Z,2.53
2022-11-16T10:56:39.752Z,3.35
2022-11-16T10:59:10.809Z,3.08
2022-11-16T11:01:50.489Z,2.70
2022-11-16T11:04:35.619Z,3.78
2022-11-16T11:07:24.644Z,4.25
2022-11-16T11:09:55.004Z,4.00
2022-11-16T11:12:39.392Z,3.75
2022-11-16T11:18:30.189Z,3.83
2022-11-16T11:21:19.369Z,3.75
2022-11-16T11:23:52.325Z,4.15
2022-11-16T11:26:34.675Z,3.95
2022-11-16T11:29:24.874Z,4.03
2022-11-16T11:32:06.330Z,5.13
2022-11-16T11:34:43.737Z,4.68
2022-11-16T11:37:35.524Z,4.72
2022-11-16T11:40:09.682Z,5.05
2022-11-16T11:42:41.246Z,5.07
2022-11-16T11:45:13.218Z,4.93
2022-11-16T11:47:58.724Z,5.40
2022-11-16T11:50:51.163Z,5.70
2022-11-16T11:53:20.990Z,5.57
2022-11-16T11:55:51.458Z,6.00
2022-11-16T11:58:19.420Z,5.40
2022-11-16T12:01:09.152Z,5.47
2022-11-16T12:03:57.033Z,5.75
2022-11-16T12:06:44.728Z,5.50
2022-11-16T12:10:02.327Z,5.88
2022-11-16T12:12:35.063Z,5.05
2022-11-16T12:15:32.110Z,6.05
2022-11-16T12:20:42.825Z,5.38
2022-11-16T12:23:27.265Z,4.63
2022-11-16T12:28:50.875Z,4.70
2022-11-16T12:31:36.259Z,5.07
2022-11-16T12:34:24.605Z,4.50
2022-11-16T12:37:23.655Z,5.15
2022-11-16T12:40:18.578Z,4.90
2022-11-16T12:43:08.172Z,4.88
2022-11-16T12:45:46.309Z,4.53
2022-11-16T12:48:25.214Z,5.28
2022-11-16T12:51:08.928Z,4.88
2022-11-16T12:53:44.963Z,5.50
2022-11-16T12:56:38.335Z,5.35
2022-11-16T12:59:28.185Z,4.85
2022-11-16T13:02:31.621Z,4.72
2022-11-16T13:05:17.010Z,4.82
2022-11-16T13:08:05.426Z,4.90
2022-11-16T13:10:36.610Z,4.40
2022-11-16T13:13:35.917Z,4.30
2022-11-16T13:16:06.580Z,4.75
2022-11-16T13:18:35.640Z,3.20
2022-11-16T13:21:40.101Z,3.80
2022-11-16T13:24:30.262Z,3.10
2022-11-16T13:27:15.142Z,3.63
2022-11-16T13:30:26.959Z,3.58
2022-11-16T13:33:15.625Z,3.25
2022-11-16T13:35:42.287Z,3.72
2022-11-16T13:38:13.514Z,3.47
2022-11-16T13:40:41.168Z,3.95
2022-11-16T13:43:10.952Z,3.45
2022-11-16T13:46:01.263Z,4.32
2022-11-16T13:48:34.409Z,3.10
2022-11-16T13:51:04.819Z,3.10
2022-11-16T13:56:29.326Z,3.08
2022-11-16T13:58:58.251Z,3.00
2022-11-16T14:01:26.521Z,2.60
2022-11-16T14:04:31.757Z,2.40
2022-11-16T14:06:59.944Z,2.78
2022-11-16T14:09:47.346Z,2.25
2022-11-16T14:12:36.169Z,2.58
2022-11-16T14:15:16.829Z,3.40
2022-11-16T14:17:52.263Z,2.50
2022-11-16T14:20:37.286Z,2.47
2022-11-16T14:23:18.860Z,2.88
2022-11-16T14:25:57.695Z,2.65
2022-11-16T14:28:38.119Z,2.53
2022-11-16T14:31:29.252Z,2.45
2022-11-16T14:33:58.852Z,2.45
2022-11-16T14:36:41.465Z,2.65
2022-11-16T14:39:23.723Z,2.38
2022-11-16T14:41:51.071Z,2.30
2022-11-16T14:44:21.795Z,2.67
2022-11-16T14:46:48.680Z,2.30
2022-11-16T14:49:17.947Z,2.47
2022-11-16T14:51:48.824Z,3.13
2022-11-16T14:54:24.729Z,3.42
2022-11-16T14:57:00.362Z,3.60
2022-11-16T14:59:28.135Z,4.03
2022-11-16T15:01:55.165Z,3.25
2022-11-16T15:04:24.837Z,3.40
2022-11-16T15:06:58.291Z,3.90
2022-11-16T15:09:35.573Z,3.83
2022-11-16T15:12:23.213Z,3.28
2022-11-16T15:14:56.537Z,4.00
2022-11-16T15:17:31.884Z,3.60
2022-11-16T15:20:03.129Z,3.42
2022-11-16T15:22:31.882Z,3.72
2022-11-16T15:25:00.602Z,3.63
2022-11-16T15:27:38.986Z,3.72
2022-11-16T15:30:18.430Z,3.80
2022-11-16T15:32:47.586Z,4.35
2022-11-16T15:35:28.683Z,4.00
2022-11-16T15:38:18.631Z,3.47
2022-11-16T15:40:53.878Z,3.75
2022-11-16T15:43:23.912Z,3.72
2022-11-16T15:45:51.498Z,3.95
2022-11-16T15:48:23.221Z,3.67
2022-11-16T15:51:14.220Z,4.00
2022-11-16T15:53:53.235Z,4.13
2022-11-16T15:56:25.894Z,4.05
2022-11-16T15:58:58.526Z,3.95
2022-11-16T16:01:25.924Z,3.85
2022-11-16T16:04:05.898Z,3.92
2022-11-16T16:06:44.230Z,4.15
2022-11-16T16:09:24.882Z,3.47
2022-11-16T16:11:53.692Z,3.50
2022-11-16T16:14:30.351Z,3.08
2022-11-16T16:16:59.051Z,3.22
2022-11-16T16:19:31.922Z,3.25
2022-11-16T16:21:59.523Z,3.88
2022-11-16T16:24:44.128Z,3.85
2022-11-16T16:27:28.946Z,3.47
2022-11-16T16:29:58.104Z,3.25
2022-11-16T16:32:36.881Z,3.97
2022-11-16T16:35:06.661Z,3.40
2022-11-16T16:37:36.061Z,3.28
2022-11-16T16:40:03.693Z,2.70
2022-11-16T16:42:30.484Z,3.75
2022-11-16T16:44:59.585Z,3.28
2022-11-16T16:47:26.396Z,2.38
2022-11-16T16:49:53.184Z,3.13
2022-11-16T16:52:19.879Z,2.60
2022-11-16T16:54:46.618Z,3.03
2022-11-16T16:57:17.832Z,2.30
2022-11-16T16:59:45.833Z,2.45
2022-11-16T17:02:13.158Z,2.42
2022-11-16T17:04:40.208Z,2.17
2022-11-16T17:07:07.136Z,2.15
2022-11-16T17:09:33.903Z,1.80
2022-11-16T17:12:00.783Z,2.10
2022-11-16T17:14:27.523Z,2.20
2022-11-16T17:16:54.384Z,1.65
2022-11-16T17:19:22.542Z,2.08
2022-11-16T17:21:51.431Z,1.17
2022-11-16T17:24:18.218Z,1.45
2022-11-16T17:26:48.223Z,1.33
2022-11-16T17:29:15.279Z,1.08
2022-11-16T17:31:44.942Z,1.48
2022-11-16T17:34:13.702Z,1.48
2022-11-16T17:36:41.473Z,1.25
2022-11-16T17:39:08.179Z,1.60
2022-11-16T17:41:35.277Z,1.33
2022-11-16T17:44:02.157Z,1.30
2022-11-16T17:46:29.064Z,1.50
2022-11-16T17:48:56.328Z,1.30
2022-11-16T17:51:25.162Z,1.30
2022-11-16T17:53:52.689Z,1.60
2022-11-16T17:56:21.997Z,1.02
2022-11-16T17:58:50.254Z,1.88
2022-11-16T18:01:17.192Z,1.70
2022-11-16T18:03:44.514Z,1.92
2022-11-16T18:06:13.749Z,1.50
2022-11-16T18:08:41.773Z,1.83
2022-11-16T18:11:11.362Z,1.90
2022-11-16T18:13:38.192Z,1.30
2022-11-16T18:16:17.929Z,1.50
2022-11-16T18:18:46.724Z,1.80
2022-11-16T18:21:20.391Z,1.20
2022-11-16T18:23:48.039Z,1.48
2022-11-16T18:26:17.234Z,1.52
2022-11-16T18:28:47.886Z,1.40
2022-11-16T18:31:16.935Z,1.20
2022-11-16T18:33:44.319Z,1.20
2022-11-16T18:36:12.019Z,1.15
2022-11-16T18:38:39.167Z,0.80
2022-11-16T18:41:11.796Z,1.13
2022-11-16T18:43:55.671Z,1.23
2022-11-16T18:46:27.716Z,1.27
2022-11-16T18:48:55.444Z,0.65
2022-11-16T18:51:23.725Z,0.98
2022-11-16T18:53:50.785Z,1.58
2022-11-16T18:56:18.325Z,1.25
2022-11-16T18:58:53.360Z,1.42
2022-11-16T19:01:23.632Z,1.25
2022-11-16T19:03:51.339Z,1.00
2022-11-16T19:06:18.532Z,0.98
2022-11-16T19:08:53.726Z,1.13
2022-11-16T19:11:23.797Z,1.20
2022-11-16T19:13:56.357Z,0.63
2022-11-16T19:16:24.096Z,1.00
2022-11-16T19:18:50.779Z,0.95
2022-11-16T19:21:22.131Z,0.70
2022-11-16T19:23:54.560Z,1.02
2022-11-16T19:26:24.412Z,0.90
2022-11-16T19:28:52.587Z,1.02
2022-11-16T19:31:28.604Z,1.02
2022-11-16T19:34:01.045Z,1.30
2022-11-16T19:36:29.347Z,1.13
2022-11-16T19:38:56.316Z,1.20
2022-11-16T19:41:25.298Z,1.27
2022-11-16T19:44:01.872Z,1.40
2022-11-16T19:46:34.418Z,1.38
2022-11-16T19:49:01.870Z,1.38
2022-11-16T19:51:30.905Z,1.30
2022-11-16T19:53:59.594Z,1.25
2022-11-16T19:56:26.879Z,1.42
2022-11-16T19:58:53.678Z,1.27
2022-11-16T20:01:21.638Z,2.08
2022-11-16T20:03:49.379Z,1.48
2022-11-16T20:06:25.994Z,1.63
2022-11-16T20:08:55.967Z,1.58
2022-11-16T20:11:25.333Z,1.60
2022-11-16T20:13:54.303Z,1.13
2022-11-16T20:16:24.110Z,2.08
2022-11-16T20:18:52.328Z,1.55
2022-11-16T20:21:23.717Z,1.25
2022-11-16T20:23:54.276Z,1.20
2022-11-16T20:26:22.276Z,1.60
2022-11-16T20:28:52.369Z,1.70
2022-11-16T20:31:20.640Z,1.85
2022-11-16T20:33:52.554Z,2.05
2022-11-16T20:36:19.771Z,1.17
2022-11-16T20:38:46.784Z,1.60
2022-11-16T20:41:18.798Z,1.77
2022-11-16T20:43:46.465Z,2.00
2022-11-16T20:46:15.131Z,1.60
2022-11-16T20:48:43.174Z,1.63
2022-11-16T20:51:12.961Z,1.33
2022-11-16T20:53:39.708Z,2.33
2022-11-16T20:56:07.709Z,1.45
2022-11-16T20:58:35.010Z,2.10
2022-11-16T21:01:07.031Z,1.63
2022-11-16T21:06:01.681Z,1.50
2022-11-16T21:08:30.674Z,1.58
2022-11-16T21:10:58.273Z,1.40
2022-11-16T21:13:44.056Z,1.45
2022-11-16T21:16:12.372Z,1.88
2022-11-16T21:18:39.855Z,1.52
2022-11-16T21:21:08.009Z,1.50
2022-11-16T21:23:36.443Z,1.90
2022-11-16T21:26:06.005Z,1.48
2022-11-16T21:28:32.982Z,1.50
2022-11-16T21:31:11.702Z,1.92
2022-11-16T21:33:40.461Z,1.75
2022-11-16T21:36:19.463Z,1.65
2022-11-16T21:38:46.367Z,1.73
2022-11-16T21:41:15.135Z,1.70
2022-11-16T21:43:42.083Z,1.98
2022-11-16T21:46:17.229Z,1.88
2022-11-16T21:48:44.639Z,1.30
2022-11-16T21:51:16.388Z,2.08
2022-11-16T21:53:44.489Z,1.80
2022-11-16T21:56:17.196Z,2.22
2022-11-16T21:58:44.584Z,1.90
2022-11-16T22:01:12.650Z,1.85
2022-11-16T22:03:39.832Z,2.10
2022-11-16T22:06:29.675Z,1.90
2022-11-16T22:08:56.589Z,2.30
2022-11-16T22:11:23.349Z,2.20
2022-11-16T22:13:50.253Z,1.65
2022-11-16T22:16:19.007Z,2.35
2022-11-16T22:18:45.968Z,2.03
2022-11-16T22:21:12.876Z,2.15
2022-11-16T22:23:40.020Z,2.45
2022-11-16T22:26:09.872Z,2.50
2022-11-16T22:28:37.479Z,2.15
2022-11-16T22:31:06.711Z,2.33
2022-11-16T22:33:34.571Z,2.20
2022-11-16T22:36:01.703Z,2.30
2022-11-16T22:38:28.559Z,2.25
2022-11-16T22:40:57.094Z,2.28
2022-11-16T22:43:26.137Z,2.75
2022-11-16T22:46:00.367Z,2.10
2022-11-16T22:48:38.325Z,2.78
2022-11-16T22:51:12.350Z,2.15
2022-11-16T22:53:39.300Z,2.60
2022-11-16T22:56:07.886Z,2.75
2022-11-16T22:58:38.502Z,2.65
2022-11-16T23:01:07.466Z,2.80
2022-11-16T23:03:34.955Z,2.40
2022-11-16T23:06:02.305Z,2.90
2022-11-16T23:08:29.192Z,2.08
2022-11-16T23:11:18.301Z,2.28
2022-11-16T23:14:04.254Z,2.53
2022-11-16T23:16:30.925Z,2.30
2022-11-16T23:18:58.242Z,2.47
2022-11-16T23:21:43.995Z,2.67
2022-11-16T23:24:34.514Z,2.20
2022-11-16T23:27:21.711Z,2.50
2022-11-16T23:29:48.705Z,1.88
2022-11-16T23:32:15.418Z,2.50
2022-11-16T23:34:42.059Z,2.58
2022-11-16T23:37:08.738Z,2.65
2022-11-16T23:39:35.458Z,2.05
2022-11-16T23:42:20.903Z,2.92
2022-11-16T23:44:47.616Z,1.83
2022-11-16T23:47:14.351Z,2.65
2022-11-16T23:49:41.041Z,2.33
2022-11-16T23:52:07.736Z,2.65
2022-11-16T23:54:34.423Z,2.75
2022-11-16T23:57:01.210Z,2.60
2022-11-16T23:59:27.934Z,2.17
